sensor_id;sensor_type;location;lat;lon;timestamp;P1;durP1;ratioP1;P2;durP2;ratioP2
37891;SDS011;45797;47.466;9.486;2024-03-02T00:02:27;2.25;;;0.95;;
37891;SDS011;45797;47.466;9.486;2024-03-02T00:07:57;2.28;;;0.90;;
37891;SDS011;45797;47.466;9.486;2024-03-02T00:13:34;1.40;;;0.70;;
37891;SDS011;45797;47.466;9.486;2024-03-02T00:30:00;1.90;;;0.80;;
37891;SDS011;45797;47.466;9.486;2024-03-02T00:35:27;1.77;;;0.77;;
37891;SDS011;45797;47.466;9.486;2024-03-02T00:40:48;1.60;;;0.70;;
37891;SDS011;45797;47.466;9.486;2024-03-02T00:46:18;1.58;;;0.70;;
37891;SDS011;45797;47.466;9.486;2024-03-02T00:51:39;1.85;;;0.90;;
37891;SDS011;45797;47.466;9.486;2024-03-02T00:57:01;1.95;;;0.90;;
37891;SDS011;45797;47.466;9.486;2024-03-02T01:02:27;3.80;;;1.33;;
37891;SDS011;45797;47.466;9.486;2024-03-02T01:07:48;3.13;;;1.02;;
37891;SDS011;45797;47.466;9.486;2024-03-02T01:13:09;3.38;;;1.38;;
37891;SDS011;45797;47.466;9.486;2024-03-02T01:24:11;1.90;;;0.88;;
37891;SDS011;45797;47.466;9.486;2024-03-02T01:29:44;2.22;;;0.80;;
37891;SDS011;45797;47.466;9.486;2024-03-02T01:35:05;2.10;;;0.70;;
37891;SDS011;45797;47.466;9.486;2024-03-02T01:40:27;2.88;;;1.00;;
37891;SDS011;45797;47.466;9.486;2024-03-02T01:45:49;2.30;;;1.00;;
37891;SDS011;45797;47.466;9.486;2024-03-02T01:51:16;2.17;;;1.10;;
37891;SDS011;45797;47.466;9.486;2024-03-02T01:56:43;3.42;;;1.10;;
37891;SDS011;45797;47.466;9.486;2024-03-02T02:02:10;2.72;;;1.13;;
37891;SDS011;45797;47.466;9.486;2024-03-02T02:07:33;4.22;;;1.30;;
37891;SDS011;45797;47.466;9.486;2024-03-02T02:12:55;2.88;;;1.30;;
37891;SDS011;45797;47.466;9.486;2024-03-02T02:18:16;2.90;;;1.27;;
37891;SDS011;45797;47.466;9.486;2024-03-02T02:23:37;1.30;;;0.80;;
37891;SDS011;45797;47.466;9.486;2024-03-02T02:29:03;3.17;;;1.27;;
37891;SDS011;45797;47.466;9.486;2024-03-02T02:34:26;2.90;;;1.30;;
37891;SDS011;45797;47.466;9.486;2024-03-02T02:39:46;4.43;;;1.55;;
37891;SDS011;45797;47.466;9.486;2024-03-02T02:45:14;3.17;;;1.40;;
37891;SDS011;45797;47.466;9.486;2024-03-02T02:50:35;2.75;;;1.48;;
37891;SDS011;45797;47.466;9.486;2024-03-02T02:55:56;5.70;;;2.13;;
37891;SDS011;45797;47.466;9.486;2024-03-02T03:01:17;4.93;;;2.10;;
37891;SDS011;45797;47.466;9.486;2024-03-02T03:06:45;5.80;;;2.78;;
37891;SDS011;45797;47.466;9.486;2024-03-02T03:12:07;5.60;;;2.55;;
37891;SDS011;45797;47.466;9.486;2024-03-02T03:22:54;7.05;;;2.78;;
37891;SDS011;45797;47.466;9.486;2024-03-02T03:28:15;5.30;;;2.33;;
37891;SDS011;45797;47.466;9.486;2024-03-02T03:33:36;5.72;;;2.40;;
37891;SDS011;45797;47.466;9.486;2024-03-02T03:38:56;5.32;;;2.50;;
37891;SDS011;45797;47.466;9.486;2024-03-02T03:44:28;4.93;;;2.30;;
37891;SDS011;45797;47.466;9.486;2024-03-02T03:49:49;5.35;;;2.58;;
37891;SDS011;45797;47.466;9.486;2024-03-02T03:55:11;4.22;;;2.25;;
37891;SDS011;45797;47.466;9.486;2024-03-02T04:00:42;3.30;;;1.67;;
37891;SDS011;45797;47.466;9.486;2024-03-02T04:06:03;3.35;;;1.60;;
37891;SDS011;45797;47.466;9.486;2024-03-02T04:16:54;6.50;;;2.13;;
37891;SDS011;45797;47.466;9.486;2024-03-02T04:22:16;5.15;;;2.28;;
37891;SDS011;45797;47.466;9.486;2024-03-02T04:27:38;3.90;;;1.80;;
37891;SDS011;45797;47.466;9.486;2024-03-02T04:33:00;8.43;;;2.15;;
37891;SDS011;45797;47.466;9.486;2024-03-02T04:38:28;4.30;;;1.92;;
37891;SDS011;45797;47.466;9.486;2024-03-02T04:43:50;4.90;;;2.10;;
37891;SDS011;45797;47.466;9.486;2024-03-02T04:49:12;7.00;;;2.78;;
37891;SDS011;45797;47.466;9.486;2024-03-02T04:54:33;7.57;;;3.30;;
37891;SDS011;45797;47.466;9.486;2024-03-02T05:00:14;8.50;;;3.22;;
37891;SDS011;45797;47.466;9.486;2024-03-02T05:05:37;8.95;;;2.92;;
37891;SDS011;45797;47.466;9.486;2024-03-02T05:10:58;5.35;;;1.90;;
37891;SDS011;45797;47.466;9.486;2024-03-02T05:22:05;6.55;;;2.75;;
37891;SDS011;45797;47.466;9.486;2024-03-02T05:27:27;7.63;;;3.28;;
37891;SDS011;45797;47.466;9.486;2024-03-02T05:32:49;10.05;;;4.53;;
37891;SDS011;45797;47.466;9.486;2024-03-02T05:38:10;8.55;;;3.90;;
37891;SDS011;45797;47.466;9.486;2024-03-02T05:43:40;8.98;;;4.22;;
37891;SDS011;45797;47.466;9.486;2024-03-02T05:49:00;13.95;;;4.97;;
37891;SDS011;45797;47.466;9.486;2024-03-02T05:54:21;10.13;;;4.03;;
37891;SDS011;45797;47.466;9.486;2024-03-02T05:59:41;10.02;;;3.85;;
37891;SDS011;45797;47.466;9.486;2024-03-02T06:05:04;12.45;;;4.40;;
37891;SDS011;45797;47.466;9.486;2024-03-02T06:10:29;9.45;;;4.13;;
37891;SDS011;45797;47.466;9.486;2024-03-02T06:15:50;10.63;;;4.25;;
37891;SDS011;45797;47.466;9.486;2024-03-02T06:21:11;11.90;;;4.20;;
37891;SDS011;45797;47.466;9.486;2024-03-02T06:26:31;8.43;;;3.60;;
37891;SDS011;45797;47.466;9.486;2024-03-02T06:31:52;7.30;;;3.35;;
37891;SDS011;45797;47.466;9.486;2024-03-02T06:42:37;17.52;;;4.82;;
37891;SDS011;45797;47.466;9.486;2024-03-02T06:47:57;9.82;;;4.07;;
37891;SDS011;45797;47.466;9.486;2024-03-02T06:53:18;10.95;;;4.57;;
37891;SDS011;45797;47.466;9.486;2024-03-02T06:58:39;9.82;;;3.83;;
37891;SDS011;45797;47.466;9.486;2024-03-02T07:04:02;10.88;;;4.60;;
37891;SDS011;45797;47.466;9.486;2024-03-02T07:09:23;10.25;;;3.97;;
37891;SDS011;45797;47.466;9.486;2024-03-02T07:14:46;8.48;;;4.22;;
37891;SDS011;45797;47.466;9.486;2024-03-02T07:20:38;8.13;;;4.07;;
37891;SDS011;45797;47.466;9.486;2024-03-02T07:26:00;12.00;;;4.15;;
37891;SDS011;45797;47.466;9.486;2024-03-02T07:31:23;11.30;;;4.75;;
37891;SDS011;45797;47.466;9.486;2024-03-02T07:36:45;8.38;;;4.28;;
37891;SDS011;45797;47.466;9.486;2024-03-02T07:42:17;9.40;;;3.97;;
37891;SDS011;45797;47.466;9.486;2024-03-02T07:47:37;12.32;;;4.75;;
37891;SDS011;45797;47.466;9.486;2024-03-02T07:53:16;12.30;;;4.70;;
37891;SDS011;45797;47.466;9.486;2024-03-02T08:04:18;12.20;;;4.32;;
37891;SDS011;45797;47.466;9.486;2024-03-02T08:09:40;11.30;;;4.70;;
37891;SDS011;45797;47.466;9.486;2024-03-02T08:20:27;9.32;;;4.60;;
37891;SDS011;45797;47.466;9.486;2024-03-02T08:25:58;10.88;;;4.55;;
37891;SDS011;45797;47.466;9.486;2024-03-02T08:31:19;10.13;;;3.92;;
37891;SDS011;45797;47.466;9.486;2024-03-02T08:36:39;9.07;;;4.00;;
37891;SDS011;45797;47.466;9.486;2024-03-02T08:42:00;10.38;;;4.53;;
37891;SDS011;45797;47.466;9.486;2024-03-02T08:53:00;10.23;;;4.22;;
37891;SDS011;45797;47.466;9.486;2024-03-02T08:58:21;10.32;;;4.20;;
37891;SDS011;45797;47.466;9.486;2024-03-02T09:03:57;10.20;;;4.13;;
37891;SDS011;45797;47.466;9.486;2024-03-02T09:09:19;12.13;;;4.88;;
37891;SDS011;45797;47.466;9.486;2024-03-02T09:14:42;12.50;;;4.53;;
37891;SDS011;45797;47.466;9.486;2024-03-02T09:20:02;10.85;;;4.78;;
37891;SDS011;45797;47.466;9.486;2024-03-02T09:25:25;11.20;;;5.47;;
37891;SDS011;45797;47.466;9.486;2024-03-02T09:36:33;11.52;;;4.78;;
37891;SDS011;45797;47.466;9.486;2024-03-02T09:41:53;11.80;;;5.03;;
37891;SDS011;45797;47.466;9.486;2024-03-02T09:52:43;9.63;;;4.35;;
37891;SDS011;45797;47.466;9.486;2024-03-02T09:58:04;13.55;;;5.47;;
37891;SDS011;45797;47.466;9.486;2024-03-02T10:08:59;15.35;;;5.25;;
37891;SDS011;45797;47.466;9.486;2024-03-02T10:14:20;10.80;;;4.78;;
37891;SDS011;45797;47.466;9.486;2024-03-02T10:19:42;10.80;;;4.75;;
37891;SDS011;45797;47.466;9.486;2024-03-02T10:25:03;11.50;;;5.22;;
37891;SDS011;45797;47.466;9.486;2024-03-02T10:30:28;10.63;;;5.30;;
37891;SDS011;45797;47.466;9.486;2024-03-02T10:35:51;12.10;;;5.07;;
37891;SDS011;45797;47.466;9.486;2024-03-02T10:41:17;10.88;;;4.65;;
37891;SDS011;45797;47.466;9.486;2024-03-02T10:46:40;13.32;;;5.38;;
37891;SDS011;45797;47.466;9.486;2024-03-02T10:52:03;10.90;;;4.93;;
37891;SDS011;45797;47.466;9.486;2024-03-02T10:57:36;11.30;;;4.50;;
37891;SDS011;45797;47.466;9.486;2024-03-02T11:03:15;14.90;;;5.70;;
37891;SDS011;45797;47.466;9.486;2024-03-02T11:14:25;11.23;;;4.65;;
37891;SDS011;45797;47.466;9.486;2024-03-02T11:19:46;11.80;;;5.47;;
37891;SDS011;45797;47.466;9.486;2024-03-02T11:36:18;9.77;;;4.45;;
37891;SDS011;45797;47.466;9.486;2024-03-02T11:41:40;8.88;;;4.53;;
37891;SDS011;45797;47.466;9.486;2024-03-02T11:47:02;9.13;;;4.35;;
37891;SDS011;45797;47.466;9.486;2024-03-02T11:52:27;9.23;;;4.38;;
37891;SDS011;45797;47.466;9.486;2024-03-02T12:03:30;7.15;;;3.95;;
37891;SDS011;45797;47.466;9.486;2024-03-02T12:08:54;10.57;;;4.15;;
37891;SDS011;45797;47.466;9.486;2024-03-02T12:25:06;8.40;;;4.32;;
37891;SDS011;45797;47.466;9.486;2024-03-02T12:30:31;8.35;;;3.90;;
37891;SDS011;45797;47.466;9.486;2024-03-02T12:35:56;9.23;;;4.47;;
37891;SDS011;45797;47.466;9.486;2024-03-02T12:41:35;10.20;;;3.97;;
37891;SDS011;45797;47.466;9.486;2024-03-02T12:47:08;7.53;;;3.72;;
37891;SDS011;45797;47.466;9.486;2024-03-02T12:52:31;8.32;;;4.03;;
37891;SDS011;45797;47.466;9.486;2024-03-02T13:03:20;10.13;;;3.72;;
37891;SDS011;45797;47.466;9.486;2024-03-02T13:08:42;8.02;;;3.33;;
37891;SDS011;45797;47.466;9.486;2024-03-02T13:14:06;9.20;;;4.00;;
37891;SDS011;45797;47.466;9.486;2024-03-02T13:19:27;6.75;;;3.55;;
37891;SDS011;45797;47.466;9.486;2024-03-02T13:24:52;9.95;;;3.50;;
37891;SDS011;45797;47.466;9.486;2024-03-02T13:30:19;8.27;;;2.88;;
37891;SDS011;45797;47.466;9.486;2024-03-02T13:41:03;6.43;;;2.47;;
37891;SDS011;45797;47.466;9.486;2024-03-02T13:46:25;6.15;;;3.03;;
37891;SDS011;45797;47.466;9.486;2024-03-02T13:51:54;8.68;;;3.47;;
37891;SDS011;45797;47.466;9.486;2024-03-02T13:57:25;6.50;;;3.40;;
37891;SDS011;45797;47.466;9.486;2024-03-02T14:02:52;8.45;;;3.75;;
37891;SDS011;45797;47.466;9.486;2024-03-02T14:08:16;6.70;;;3.33;;
37891;SDS011;45797;47.466;9.486;2024-03-02T14:13:37;7.95;;;3.67;;
37891;SDS011;45797;47.466;9.486;2024-03-02T14:19:00;7.22;;;3.47;;
37891;SDS011;45797;47.466;9.486;2024-03-02T14:24:37;7.55;;;3.72;;
37891;SDS011;45797;47.466;9.486;2024-03-02T14:29:59;9.32;;;3.35;;
37891;SDS011;45797;47.466;9.486;2024-03-02T14:35:20;10.60;;;3.80;;
37891;SDS011;45797;47.466;9.486;2024-03-02T14:46:15;9.18;;;4.00;;
37891;SDS011;45797;47.466;9.486;2024-03-02T14:51:36;7.80;;;3.38;;
37891;SDS011;45797;47.466;9.486;2024-03-02T14:56:57;7.30;;;3.63;;
37891;SDS011;45797;47.466;9.486;2024-03-02T15:02:28;8.07;;;3.25;;
37891;SDS011;45797;47.466;9.486;2024-03-02T15:07:52;6.65;;;3.40;;
37891;SDS011;45797;47.466;9.486;2024-03-02T15:13:14;7.57;;;3.97;;
37891;SDS011;45797;47.466;9.486;2024-03-02T15:18:44;8.27;;;3.28;;
37891;SDS011;45797;47.466;9.486;2024-03-02T15:24:07;7.45;;;4.03;;
37891;SDS011;45797;47.466;9.486;2024-03-02T15:29:29;8.75;;;3.92;;
37891;SDS011;45797;47.466;9.486;2024-03-02T15:34:52;7.82;;;3.80;;
37891;SDS011;45797;47.466;9.486;2024-03-02T15:40:13;12.80;;;6.68;;
37891;SDS011;45797;47.466;9.486;2024-03-02T15:45:35;10.85;;;5.25;;
37891;SDS011;45797;47.466;9.486;2024-03-02T15:51:02;9.23;;;4.55;;
37891;SDS011;45797;47.466;9.486;2024-03-02T16:02:13;7.68;;;3.60;;
37891;SDS011;45797;47.466;9.486;2024-03-02T16:13:13;5.93;;;2.85;;
37891;SDS011;45797;47.466;9.486;2024-03-02T16:18:38;7.28;;;2.83;;
37891;SDS011;45797;47.466;9.486;2024-03-02T16:24:09;3.95;;;2.20;;
37891;SDS011;45797;47.466;9.486;2024-03-02T16:29:30;6.00;;;1.60;;
37891;SDS011;45797;47.466;9.486;2024-03-02T16:35:00;2.83;;;1.17;;
37891;SDS011;45797;47.466;9.486;2024-03-02T16:40:22;1.70;;;0.77;;
37891;SDS011;45797;47.466;9.486;2024-03-02T16:51:25;3.67;;;1.98;;
37891;SDS011;45797;47.466;9.486;2024-03-02T17:02:39;2.78;;;1.35;;
37891;SDS011;45797;47.466;9.486;2024-03-02T17:08:01;2.72;;;1.35;;
37891;SDS011;45797;47.466;9.486;2024-03-02T17:13:21;3.42;;;1.00;;
37891;SDS011;45797;47.466;9.486;2024-03-02T17:18:42;2.90;;;1.20;;
37891;SDS011;45797;47.466;9.486;2024-03-02T17:24:02;3.13;;;1.42;;
37891;SDS011;45797;47.466;9.486;2024-03-02T17:29:23;2.22;;;0.90;;
37891;SDS011;45797;47.466;9.486;2024-03-02T17:34:47;0.90;;;0.50;;
37891;SDS011;45797;47.466;9.486;2024-03-02T17:40:09;1.73;;;0.73;;
37891;SDS011;45797;47.466;9.486;2024-03-02T17:45:32;1.92;;;0.95;;
37891;SDS011;45797;47.466;9.486;2024-03-02T17:50:54;1.55;;;0.70;;
37891;SDS011;45797;47.466;9.486;2024-03-02T17:56:17;3.08;;;1.40;;
37891;SDS011;45797;47.466;9.486;2024-03-02T18:01:38;5.25;;;2.30;;
37891;SDS011;45797;47.466;9.486;2024-03-02T18:12:33;2.22;;;1.15;;
37891;SDS011;45797;47.466;9.486;2024-03-02T18:17:54;2.22;;;0.88;;
37891;SDS011;45797;47.466;9.486;2024-03-02T18:23:14;2.75;;;1.30;;
37891;SDS011;45797;47.466;9.486;2024-03-02T18:28:36;0.50;;;0.40;;
37891;SDS011;45797;47.466;9.486;2024-03-02T18:33:56;1.15;;;0.55;;
37891;SDS011;45797;47.466;9.486;2024-03-02T19:06:36;0.95;;;0.40;;
37891;SDS011;45797;47.466;9.486;2024-03-02T19:12:03;0.75;;;0.40;;
37891;SDS011;45797;47.466;9.486;2024-03-02T19:17:25;1.17;;;0.60;;
37891;SDS011;45797;47.466;9.486;2024-03-02T19:28:09;0.45;;;0.30;;
37891;SDS011;45797;47.466;9.486;2024-03-02T19:33:29;0.32;;;0.30;;
37891;SDS011;45797;47.466;9.486;2024-03-02T19:49:53;1.05;;;0.47;;
37891;SDS011;45797;47.466;9.486;2024-03-02T19:55:16;1.02;;;0.40;;
37891;SDS011;45797;47.466;9.486;2024-03-02T20:00:47;0.70;;;0.30;;
37891;SDS011;45797;47.466;9.486;2024-03-02T20:06:08;0.43;;;0.32;;
37891;SDS011;45797;47.466;9.486;2024-03-02T20:11:33;0.30;;;0.30;;
37891;SDS011;45797;47.466;9.486;2024-03-02T20:17:01;0.70;;;0.43;;
37891;SDS011;45797;47.466;9.486;2024-03-02T20:22:21;0.60;;;0.32;;
37891;SDS011;45797;47.466;9.486;2024-03-02T20:27:43;0.30;;;0.30;;
37891;SDS011;45797;47.466;9.486;2024-03-02T20:33:20;0.30;;;0.30;;
37891;SDS011;45797;47.466;9.486;2024-03-02T20:38:41;0.50;;;0.30;;
37891;SDS011;45797;47.466;9.486;2024-03-02T20:44:17;0.50;;;0.38;;
37891;SDS011;45797;47.466;9.486;2024-03-02T20:49:39;2.35;;;0.30;;
37891;SDS011;45797;47.466;9.486;2024-03-02T21:00:28;0.47;;;0.40;;
37891;SDS011;45797;47.466;9.486;2024-03-02T21:05:49;1.00;;;0.40;;
37891;SDS011;45797;47.466;9.486;2024-03-02T21:11:20;0.20;;;0.20;;
37891;SDS011;45797;47.466;9.486;2024-03-02T21:16:43;0.70;;;0.30;;
37891;SDS011;45797;47.466;9.486;2024-03-02T21:22:04;0.32;;;0.30;;
37891;SDS011;45797;47.466;9.486;2024-03-02T21:27:25;0.57;;;0.30;;
37891;SDS011;45797;47.466;9.486;2024-03-02T21:32:47;0.52;;;0.38;;
37891;SDS011;45797;47.466;9.486;2024-03-02T21:38:09;0.40;;;0.40;;
37891;SDS011;45797;47.466;9.486;2024-03-02T21:43:38;0.30;;;0.30;;
37891;SDS011;45797;47.466;9.486;2024-03-02T21:49:02;0.30;;;0.30;;
37891;SDS011;45797;47.466;9.486;2024-03-02T21:54:33;1.08;;;0.32;;
37891;SDS011;45797;47.466;9.486;2024-03-02T22:00:00;0.30;;;0.30;;
37891;SDS011;45797;47.466;9.486;2024-03-02T22:05:22;0.60;;;0.32;;
37891;SDS011;45797;47.466;9.486;2024-03-02T22:10:46;0.77;;;0.40;;
37891;SDS011;45797;47.466;9.486;2024-03-02T22:21:30;0.45;;;0.30;;
37891;SDS011;45797;47.466;9.486;2024-03-02T22:26:50;0.30;;;0.30;;
37891;SDS011;45797;47.466;9.486;2024-03-02T22:32:17;0.20;;;0.20;;
37891;SDS011;45797;47.466;9.486;2024-03-02T22:37:38;0.20;;;0.20;;
37891;SDS011;45797;47.466;9.486;2024-03-02T22:43:00;0.30;;;0.30;;
37891;SDS011;45797;47.466;9.486;2024-03-02T22:54:12;0.30;;;0.30;;
37891;SDS011;45797;47.466;9.486;2024-03-02T22:59:34;0.20;;;0.20;;
37891;SDS011;45797;47.466;9.486;2024-03-02T23:05:04;0.57;;;0.40;;
37891;SDS011;45797;47.466;9.486;2024-03-02T23:10:26;1.80;;;0.30;;
37891;SDS011;45797;47.466;9.486;2024-03-02T23:15:46;0.55;;;0.30;;
37891;SDS011;45797;47.466;9.486;2024-03-02T23:21:09;0.32;;;0.28;;
37891;SDS011;45797;47.466;9.486;2024-03-02T23:26:31;0.68;;;0.40;;
37891;SDS011;45797;47.466;9.486;2024-03-02T23:32:01;0.20;;;0.20;;
37891;SDS011;45797;47.466;9.486;2024-03-02T23:37:32;2.00;;;0.38;;
37891;SDS011;45797;47.466;9.486;2024-03-02T23:42:55;0.32;;;0.30;;
37891;SDS011;45797;47.466;9.486;2024-03-02T23:48:23;0.40;;;0.30;;
37891;SDS011;45797;47.466;9.486;2024-03-02T23:59:15;0.20;;;0.20;;
